Aviation Digital Data Service (ADDS)

Output produced by TAFs form (0213 UTC 20 September 2017)
found at http://www.aviationweather.gov/adds/tafs/
 
KRIC 192333Z 2000/2024 34006KT P6SM FEW050 FEW250 
     FM200600 31005KT P6SM SKC 
     FM201800 32007KT P6SM FEW250